Blue Dome, Idaho
Current Conditions -  °F | °C
As of 8:55 PM on Sunday 25 Jan 2015 (Local Time) from KLLJ Reporting Station
Clear Clear  
Wind Chill: 26°   Ceiling: Unl
Heat Index: 31°   Visibility: 10mi
Dew Point: 29°   Wind: 5mph
Humidity: 92%   Direction: 190°S
Pressure: 30.4"   Gusts: NA
Location:  44.5987°N, 113.355°W
Report Text: KLLJ 260355Z AUTO 19004KT 10SM CLR M01/M02 A3040 RMK AO2 SLP321 T10061017
Loading
Personal Weather Stations






























Interactive Weather Map New forecast layout! Learn more

10-Day Weather Forecast

Advertisements
Track Severe Weather on mobile